Hlavní strana
METAR-TAF:

METAR-TAF

Letiště :

Bagdád, Irák

zeměpisná šířka: 33-15-45N, zeměpisná délka: 44-14-04E, výška: 35 m

Aktuální stav počasí

Zpráva byla vytvořena před 12 minutami, v 22:00 UTC
Severní vítr 4 kt
Teplota 24°C
Vlhkost vzduchu 47%
Tlak 1010 hPa
Viditelnost: 8000 m
Polojasno ve výšce 3300 ft

METAR: ORBI 252200Z 01004KT 8000 SCT033 24/12 Q1010 NOSIG

Čas: 01:12 (22:12 UTC)

Předpověď počasí

Zpráva byla vytvořena před 6 hodinami a 12 minutami, v 16:00 UTC
Předpověď platná od 15 v 18 UTC do 26 v 18 UTC
Východojihovýchodní vítr 9 kt
Viditelnost: 8000 m
Polojasno ve výšce 3500 ft
Dočasný
od 25 v 21 UTC do 26 v 03 UTC
Oblačno až skoro zataženo ve výšce 3500 ft
slabé dešťové přeháňky
Pravděpodobnost 40%
mezi -T a S UTC
Skoro jasno ve výšce 2500 ft, Cumulonimbus.

TAF: ORBI 251600Z 1518/2618 11009KT 8000 SCT035 TEMPO 2521/2603 -SHRA BKN035 PROB40 -TS FEW025CB

Stav a předpovědi počasí z více než 4 000 letišť (zprávy METAR a TAF).

Červené a žluté tečky na mapě představují dostupné meteorologické stanice.

Když kurzor umístíte na tečku, zobrazí se název stanice.

Pak kliknutím zobrazíte stav a předpověď počasí.

Chcete-li změnit mapu, kliknutím na zelené tlačítko se znaménkem +mapu přiblížíte, kliknutím na zelené tlačítko se znaménkem – mapu oddálíte a kliknutím na zelené šipky přejdete na sousední mapy.


METAR-TAF: